sensor_id;sensor_type;location;lat;lon;timestamp;pressure;altitude;pressure_sealevel;temperature;humidity
28167;BME280;15455;53.376;-6.262;2023-09-18T00:01:22;100053.19;;;13.64;100.00
28167;BME280;15455;53.376;-6.262;2023-09-18T00:04:07;100049.72;;;13.64;100.00
28167;BME280;15455;53.376;-6.262;2023-09-18T00:06:53;100047.97;;;13.63;100.00
28167;BME280;15455;53.376;-6.262;2023-09-18T00:09:39;100040.97;;;13.63;100.00
28167;BME280;15455;53.376;-6.262;2023-09-18T00:12:24;100043.63;;;13.62;100.00
28167;BME280;15455;53.376;-6.262;2023-09-18T00:15:10;100044.56;;;13.61;100.00
28167;BME280;15455;53.376;-6.262;2023-09-18T00:17:55;100048.06;;;13.60;100.00
28167;BME280;15455;53.376;-6.262;2023-09-18T00:20:41;100043.66;;;13.60;100.00
28167;BME280;15455;53.376;-6.262;2023-09-18T00:23:27;100044.59;;;13.59;100.00
28167;BME280;15455;53.376;-6.262;2023-09-18T00:26:13;100038.47;;;13.59;100.00
28167;BME280;15455;53.376;-6.262;2023-09-18T00:29:02;100041.97;;;13.58;100.00
28167;BME280;15455;53.376;-6.262;2023-09-18T00:31:47;100035.88;;;13.57;100.00
28167;BME280;15455;53.376;-6.262;2023-09-18T00:34:33;100032.47;;;13.55;100.00
28167;BME280;15455;53.376;-6.262;2023-09-18T00:37:18;100025.53;;;13.52;100.00
28167;BME280;15455;53.376;-6.262;2023-09-18T00:40:04;100025.56;;;13.51;100.00
28167;BME280;15455;53.376;-6.262;2023-09-18T00:42:50;100025.66;;;13.48;100.00
28167;BME280;15455;53.376;-6.262;2023-09-18T00:45:45;100021.34;;;13.45;100.00
28167;BME280;15455;53.376;-6.262;2023-09-18T00:48:31;100020.50;;;13.43;100.00
28167;BME280;15455;53.376;-6.262;2023-09-18T00:51:17;100010.09;;;13.40;100.00
28167;BME280;15455;53.376;-6.262;2023-09-18T00:54:03;100009.25;;;13.40;100.00
28167;BME280;15455;53.376;-6.262;2023-09-18T00:56:49;100000.59;;;13.36;100.00
28167;BME280;15455;53.376;-6.262;2023-09-18T00:59:39;100001.53;;;13.35;100.00
28167;BME280;15455;53.376;-6.262;2023-09-18T01:02:25;99998.91;;;13.33;100.00
28167;BME280;15455;53.376;-6.262;2023-09-18T01:05:11;99989.31;;;13.32;100.00
28167;BME280;15455;53.376;-6.262;2023-09-18T01:07:57;99982.41;;;13.30;100.00
28167;BME280;15455;53.376;-6.262;2023-09-18T01:10:57;99978.03;;;13.29;100.00
28167;BME280;15455;53.376;-6.262;2023-09-18T01:13:54;99980.66;;;13.29;100.00
28167;BME280;15455;53.376;-6.262;2023-09-18T01:16:53;99977.19;;;13.28;100.00
28167;BME280;15455;53.376;-6.262;2023-09-18T01:19:46;99971.16;;;13.26;100.00
28167;BME280;15455;53.376;-6.262;2023-09-18T01:22:32;99965.03;;;13.26;100.00
28167;BME280;15455;53.376;-6.262;2023-09-18T01:25:18;99961.59;;;13.24;100.00
28167;BME280;15455;53.376;-6.262;2023-09-18T01:28:03;99953.75;;;13.24;100.00
28167;BME280;15455;53.376;-6.262;2023-09-18T01:30:49;99944.16;;;13.23;100.00
28167;BME280;15455;53.376;-6.262;2023-09-18T01:33:37;99948.50;;;13.24;100.00
28167;BME280;15455;53.376;-6.262;2023-09-18T01:36:24;99937.16;;;13.23;100.00
28167;BME280;15455;53.376;-6.262;2023-09-18T01:39:12;99940.69;;;13.22;100.00
28167;BME280;15455;53.376;-6.262;2023-09-18T01:42:03;99930.19;;;13.22;100.00
28167;BME280;15455;53.376;-6.262;2023-09-18T01:44:52;99922.38;;;13.20;100.00
28167;BME280;15455;53.376;-6.262;2023-09-18T01:47:38;99922.38;;;13.20;100.00
28167;BME280;15455;53.376;-6.262;2023-09-18T01:50:24;99913.63;;;13.20;100.00
28167;BME280;15455;53.376;-6.262;2023-09-18T01:53:09;99914.59;;;13.17;100.00
28167;BME280;15455;53.376;-6.262;2023-09-18T01:55:56;99912.88;;;13.16;100.00
28167;BME280;15455;53.376;-6.262;2023-09-18T01:58:41;99913.78;;;13.15;100.00
28167;BME280;15455;53.376;-6.262;2023-09-18T02:01:28;99906.84;;;13.14;100.00
28167;BME280;15455;53.376;-6.262;2023-09-18T02:04:16;99916.38;;;13.15;100.00
28167;BME280;15455;53.376;-6.262;2023-09-18T02:07:22;99911.16;;;13.15;100.00
28167;BME280;15455;53.376;-6.262;2023-09-18T02:10:08;99908.56;;;13.14;100.00
28167;BME280;15455;53.376;-6.262;2023-09-18T02:12:53;99912.97;;;13.13;100.00
28167;BME280;15455;53.376;-6.262;2023-09-18T02:15:39;99908.56;;;13.14;100.00
28167;BME280;15455;53.376;-6.262;2023-09-18T02:18:26;99904.22;;;13.13;100.00
28167;BME280;15455;53.376;-6.262;2023-09-18T02:21:11;99896.34;;;13.13;100.00
28167;BME280;15455;53.376;-6.262;2023-09-18T02:24:03;99893.75;;;13.13;100.00
28167;BME280;15455;53.376;-6.262;2023-09-18T02:26:49;99893.78;;;13.11;100.00
28167;BME280;15455;53.376;-6.262;2023-09-18T02:29:34;99882.41;;;13.12;100.00
28167;BME280;15455;53.376;-6.262;2023-09-18T02:32:20;99884.22;;;13.10;100.00
28167;BME280;15455;53.376;-6.262;2023-09-18T02:35:06;99880.69;;;13.11;100.00
28167;BME280;15455;53.376;-6.262;2023-09-18T02:37:52;99876.28;;;13.13;100.00
28167;BME280;15455;53.376;-6.262;2023-09-18T02:40:37;99878.91;;;13.13;100.00
28167;BME280;15455;53.376;-6.262;2023-09-18T02:43:23;99878.03;;;13.13;100.00
28167;BME280;15455;53.376;-6.262;2023-09-18T02:46:08;99878.03;;;13.13;100.00
28167;BME280;15455;53.376;-6.262;2023-09-18T02:48:54;99878.84;;;13.15;100.00
28167;BME280;15455;53.376;-6.262;2023-09-18T02:51:40;99874.47;;;13.15;100.00
28167;BME280;15455;53.376;-6.262;2023-09-18T02:54:26;99875.38;;;13.14;100.00
28167;BME280;15455;53.376;-6.262;2023-09-18T02:57:12;99878.00;;;13.14;100.00
28167;BME280;15455;53.376;-6.262;2023-09-18T02:59:58;99866.59;;;13.15;100.00
28167;BME280;15455;53.376;-6.262;2023-09-18T03:02:44;99867.53;;;13.14;100.00
28167;BME280;15455;53.376;-6.262;2023-09-18T03:05:31;99868.38;;;13.15;100.00
28167;BME280;15455;53.376;-6.262;2023-09-18T03:08:17;99866.66;;;13.14;100.00
28167;BME280;15455;53.376;-6.262;2023-09-18T03:11:02;99868.38;;;13.15;100.00
28167;BME280;15455;53.376;-6.262;2023-09-18T03:13:48;99863.09;;;13.16;100.00
28167;BME280;15455;53.376;-6.262;2023-09-18T03:16:36;99859.66;;;13.14;100.00
28167;BME280;15455;53.376;-6.262;2023-09-18T03:19:22;99856.13;;;13.15;100.00
28167;BME280;15455;53.376;-6.262;2023-09-18T03:22:10;99860.53;;;13.15;100.00
28167;BME280;15455;53.376;-6.262;2023-09-18T03:24:56;99856.31;;;13.09;100.00
28167;BME280;15455;53.376;-6.262;2023-09-18T03:27:41;99860.75;;;13.07;100.00
28167;BME280;15455;53.376;-6.262;2023-09-18T03:30:26;99859.06;;;13.05;100.00
28167;BME280;15455;53.376;-6.262;2023-09-18T03:33:12;99848.56;;;13.05;100.00
28167;BME280;15455;53.376;-6.262;2023-09-18T03:35:57;99861.81;;;12.98;100.00
28167;BME280;15455;53.376;-6.262;2023-09-18T03:38:47;99849.66;;;12.97;100.00
28167;BME280;15455;53.376;-6.262;2023-09-18T03:41:33;99858.44;;;12.95;100.00
28167;BME280;15455;53.376;-6.262;2023-09-18T03:44:21;99858.47;;;12.93;100.00
28167;BME280;15455;53.376;-6.262;2023-09-18T03:47:06;99855.94;;;12.90;100.00
28167;BME280;15455;53.376;-6.262;2023-09-18T03:49:53;99840.28;;;12.89;100.00
28167;BME280;15455;53.376;-6.262;2023-09-18T03:52:39;99840.28;;;12.89;100.00
28167;BME280;15455;53.376;-6.262;2023-09-18T03:55:25;99836.88;;;12.85;100.00
28167;BME280;15455;53.376;-6.262;2023-09-18T03:58:11;99833.41;;;12.84;100.00
28167;BME280;15455;53.376;-6.262;2023-09-18T04:00:58;99836.00;;;12.84;100.00
28167;BME280;15455;53.376;-6.262;2023-09-18T04:03:44;99839.59;;;12.80;100.00
28167;BME280;15455;53.376;-6.262;2023-09-18T04:06:36;99830.94;;;12.78;100.00
28167;BME280;15455;53.376;-6.262;2023-09-18T04:09:24;99834.47;;;12.77;100.00
28167;BME280;15455;53.376;-6.262;2023-09-18T04:12:10;99834.69;;;12.68;100.00
28167;BME280;15455;53.376;-6.262;2023-09-18T04:14:56;99827.00;;;12.62;100.00
28167;BME280;15455;53.376;-6.262;2023-09-18T04:17:41;99822.66;;;12.61;100.00
28167;BME280;15455;53.376;-6.262;2023-09-18T04:20:27;99817.53;;;12.56;100.00
28167;BME280;15455;53.376;-6.262;2023-09-18T04:23:19;99816.91;;;12.48;100.00
28167;BME280;15455;53.376;-6.262;2023-09-18T04:26:05;99811.84;;;12.40;100.00
28167;BME280;15455;53.376;-6.262;2023-09-18T04:28:51;99805.16;;;12.28;100.00
28167;BME280;15455;53.376;-6.262;2023-09-18T04:31:37;99800.97;;;12.21;100.00
28167;BME280;15455;53.376;-6.262;2023-09-18T04:34:26;99794.22;;;12.12;100.00
28167;BME280;15455;53.376;-6.262;2023-09-18T04:37:11;99790.91;;;12.04;100.00
28167;BME280;15455;53.376;-6.262;2023-09-18T04:39:57;99794.59;;;11.95;100.00
28167;BME280;15455;53.376;-6.262;2023-09-18T04:42:43;99786.03;;;11.89;100.00
28167;BME280;15455;53.376;-6.262;2023-09-18T04:45:30;99768.81;;;11.78;100.00
28167;BME280;15455;53.376;-6.262;2023-09-18T04:48:17;99777.69;;;11.71;100.00
28167;BME280;15455;53.376;-6.262;2023-09-18T04:51:03;99765.63;;;11.67;100.00
28167;BME280;15455;53.376;-6.262;2023-09-18T04:53:49;99767.41;;;11.63;100.00
28167;BME280;15455;53.376;-6.262;2023-09-18T04:56:37;99764.97;;;11.57;100.00
28167;BME280;15455;53.376;-6.262;2023-09-18T04:59:23;99760.69;;;11.53;100.00
28167;BME280;15455;53.376;-6.262;2023-09-18T05:02:08;99756.38;;;11.51;100.00
28167;BME280;15455;53.376;-6.262;2023-09-18T05:04:56;99760.88;;;11.45;100.00
28167;BME280;15455;53.376;-6.262;2023-09-18T05:07:42;99764.44;;;11.41;100.00
28167;BME280;15455;53.376;-6.262;2023-09-18T05:10:27;99764.50;;;11.38;100.00
28167;BME280;15455;53.376;-6.262;2023-09-18T05:13:13;99770.69;;;11.34;100.00
28167;BME280;15455;53.376;-6.262;2023-09-18T05:15:58;99769.84;;;11.32;100.00
28167;BME280;15455;53.376;-6.262;2023-09-18T05:18:46;99769.09;;;11.27;100.00
28167;BME280;15455;53.376;-6.262;2023-09-18T05:21:31;99769.16;;;11.24;100.00
28167;BME280;15455;53.376;-6.262;2023-09-18T05:24:18;99766.59;;;11.21;100.00
28167;BME280;15455;53.376;-6.262;2023-09-18T05:27:12;99772.75;;;11.18;100.00
28167;BME280;15455;53.376;-6.262;2023-09-18T05:29:57;99772.81;;;11.17;100.00
28167;BME280;15455;53.376;-6.262;2023-09-18T05:32:43;99770.16;;;11.18;100.00
28167;BME280;15455;53.376;-6.262;2023-09-18T05:35:35;99770.97;;;11.20;100.00
28167;BME280;15455;53.376;-6.262;2023-09-18T05:38:24;99773.47;;;11.25;100.00
28167;BME280;15455;53.376;-6.262;2023-09-18T05:41:10;99774.34;;;11.25;100.00
28167;BME280;15455;53.376;-6.262;2023-09-18T05:43:56;99771.72;;;11.27;100.00
28167;BME280;15455;53.376;-6.262;2023-09-18T05:46:42;99764.75;;;11.26;100.00
28167;BME280;15455;53.376;-6.262;2023-09-18T05:49:28;99775.28;;;11.23;100.00
28167;BME280;15455;53.376;-6.262;2023-09-18T05:52:13;99775.34;;;11.20;100.00
28167;BME280;15455;53.376;-6.262;2023-09-18T05:54:59;99769.31;;;11.16;100.00
28167;BME280;15455;53.376;-6.262;2023-09-18T05:57:49;99772.94;;;11.09;100.00
28167;BME280;15455;53.376;-6.262;2023-09-18T06:00:34;99765.28;;;11.01;100.00
28167;BME280;15455;53.376;-6.262;2023-09-18T06:03:20;99767.06;;;10.99;100.00
28167;BME280;15455;53.376;-6.262;2023-09-18T06:06:07;99763.63;;;10.95;100.00
28167;BME280;15455;53.376;-6.262;2023-09-18T06:08:53;99758.41;;;10.95;100.00
28167;BME280;15455;53.376;-6.262;2023-09-18T06:11:40;99760.25;;;10.92;100.00
28167;BME280;15455;53.376;-6.262;2023-09-18T06:14:25;99770.69;;;10.92;100.00
28167;BME280;15455;53.376;-6.262;2023-09-18T06:17:11;99768.03;;;10.93;100.00
28167;BME280;15455;53.376;-6.262;2023-09-18T06:19:56;99762.81;;;10.93;100.00
28167;BME280;15455;53.376;-6.262;2023-09-18T06:22:42;99759.28;;;10.94;100.00
28167;BME280;15455;53.376;-6.262;2023-09-18T06:25:27;99768.81;;;10.97;100.00
28167;BME280;15455;53.376;-6.262;2023-09-18T06:28:13;99784.47;;;10.99;100.00
28167;BME280;15455;53.376;-6.262;2023-09-18T06:30:58;99774.88;;;11.01;100.00
28167;BME280;15455;53.376;-6.262;2023-09-18T06:33:44;99785.31;;;11.01;100.00
28167;BME280;15455;53.376;-6.262;2023-09-18T06:36:31;99775.75;;;11.00;100.00
28167;BME280;15455;53.376;-6.262;2023-09-18T06:39:16;99775.72;;;11.01;100.00
28167;BME280;15455;53.376;-6.262;2023-09-18T06:42:02;99781.81;;;11.00;100.00
28167;BME280;15455;53.376;-6.262;2023-09-18T06:44:48;99774.88;;;11.01;100.00
28167;BME280;15455;53.376;-6.262;2023-09-18T06:47:33;99788.78;;;11.00;100.00
28167;BME280;15455;53.376;-6.262;2023-09-18T06:50:19;99788.78;;;11.00;100.00
28167;BME280;15455;53.376;-6.262;2023-09-18T06:53:05;99803.63;;;10.98;100.00
28167;BME280;15455;53.376;-6.262;2023-09-18T06:55:50;99804.63;;;10.92;100.00
28167;BME280;15455;53.376;-6.262;2023-09-18T06:58:36;99809.84;;;10.90;100.00
28167;BME280;15455;53.376;-6.262;2023-09-18T07:01:22;99816.00;;;10.88;100.00
28167;BME280;15455;53.376;-6.262;2023-09-18T07:04:09;99827.31;;;10.87;100.00
28167;BME280;15455;53.376;-6.262;2023-09-18T07:06:56;99829.13;;;10.83;100.00
28167;BME280;15455;53.376;-6.262;2023-09-18T07:09:42;99835.22;;;10.84;100.00
28167;BME280;15455;53.376;-6.262;2023-09-18T07:12:47;99831.72;;;10.83;100.00
28167;BME280;15455;53.376;-6.262;2023-09-18T07:15:33;99842.16;;;10.85;100.00
28167;BME280;15455;53.376;-6.262;2023-09-18T07:18:18;99826.59;;;10.78;100.00
28167;BME280;15455;53.376;-6.262;2023-09-18T07:21:03;99816.28;;;10.72;100.00
28167;BME280;15455;53.376;-6.262;2023-09-18T07:23:49;99819.81;;;10.68;100.00
28167;BME280;15455;53.376;-6.262;2023-09-18T07:26:35;99827.69;;;10.67;100.00
28167;BME280;15455;53.376;-6.262;2023-09-18T07:29:21;99827.66;;;10.68;100.00
28167;BME280;15455;53.376;-6.262;2023-09-18T07:32:06;99825.00;;;10.71;100.00
28167;BME280;15455;53.376;-6.262;2023-09-18T07:34:52;99837.94;;;10.77;100.00
28167;BME280;15455;53.376;-6.262;2023-09-18T07:37:38;99839.59;;;10.82;100.00
28167;BME280;15455;53.376;-6.262;2023-09-18T07:40:23;99844.81;;;10.82;100.00
28167;BME280;15455;53.376;-6.262;2023-09-18T07:43:09;99844.81;;;10.82;100.00
28167;BME280;15455;53.376;-6.262;2023-09-18T07:45:54;99845.66;;;10.84;100.00
28167;BME280;15455;53.376;-6.262;2023-09-18T07:48:41;99850.88;;;10.84;100.00
28167;BME280;15455;53.376;-6.262;2023-09-18T07:51:27;99860.47;;;10.82;100.00
28167;BME280;15455;53.376;-6.262;2023-09-18T07:54:14;99875.25;;;10.83;100.00
28167;BME280;15455;53.376;-6.262;2023-09-18T07:57:01;99862.03;;;10.93;100.00
28167;BME280;15455;53.376;-6.262;2023-09-18T07:59:47;99871.47;;;11.01;100.00
28167;BME280;15455;53.376;-6.262;2023-09-18T08:02:33;99874.91;;;11.03;100.00
28167;BME280;15455;53.376;-6.262;2023-09-18T08:05:20;99870.50;;;11.06;100.00
28167;BME280;15455;53.376;-6.262;2023-09-18T08:08:05;99865.28;;;11.05;100.00
28167;BME280;15455;53.376;-6.262;2023-09-18T08:10:52;99875.72;;;11.05;100.00
28167;BME280;15455;53.376;-6.262;2023-09-18T08:13:38;99873.97;;;11.07;100.00
28167;BME280;15455;53.376;-6.262;2023-09-18T08:16:23;99872.13;;;11.10;100.00
28167;BME280;15455;53.376;-6.262;2023-09-18T08:19:08;99860.81;;;11.11;100.00
28167;BME280;15455;53.376;-6.262;2023-09-18T08:21:55;99864.22;;;11.13;100.00
28167;BME280;15455;53.376;-6.262;2023-09-18T08:24:45;99865.88;;;11.19;100.00
28167;BME280;15455;53.376;-6.262;2023-09-18T08:27:31;99873.69;;;11.21;100.00
28167;BME280;15455;53.376;-6.262;2023-09-18T08:30:18;99867.50;;;11.25;100.00
28167;BME280;15455;53.376;-6.262;2023-09-18T08:33:06;99871.81;;;11.27;100.00
28167;BME280;15455;53.376;-6.262;2023-09-18T08:35:52;99865.75;;;11.27;100.00
28167;BME280;15455;53.376;-6.262;2023-09-18T08:38:37;99853.53;;;11.27;100.00
28167;BME280;15455;53.376;-6.262;2023-09-18T08:41:24;99856.97;;;11.31;100.00
28167;BME280;15455;53.376;-6.262;2023-09-18T08:44:13;99840.31;;;11.37;100.00
28167;BME280;15455;53.376;-6.262;2023-09-18T08:47:00;99835.88;;;11.40;100.00
28167;BME280;15455;53.376;-6.262;2023-09-18T08:49:48;99844.50;;;11.42;100.00
28167;BME280;15455;53.376;-6.262;2023-09-18T08:52:35;99824.53;;;11.41;100.00
28167;BME280;15455;53.376;-6.262;2023-09-18T08:55:23;99813.94;;;11.47;100.00
28167;BME280;15455;53.376;-6.262;2023-09-18T08:58:09;99819.94;;;11.53;100.00
28167;BME280;15455;53.376;-6.262;2023-09-18T09:00:55;99813.72;;;11.57;100.00
28167;BME280;15455;53.376;-6.262;2023-09-18T09:03:41;99819.81;;;11.59;100.00
28167;BME280;15455;53.376;-6.262;2023-09-18T09:06:28;99820.56;;;11.62;100.00
28167;BME280;15455;53.376;-6.262;2023-09-18T09:09:13;99820.63;;;11.61;100.00
28167;BME280;15455;53.376;-6.262;2023-09-18T09:11:59;99814.47;;;11.63;100.00
28167;BME280;15455;53.376;-6.262;2023-09-18T09:15:02;99810.94;;;11.66;100.00
28167;BME280;15455;53.376;-6.262;2023-09-18T09:18:01;99806.47;;;11.70;100.00
28167;BME280;15455;53.376;-6.262;2023-09-18T09:23:46;99798.50;;;11.77;100.00
28167;BME280;15455;53.376;-6.262;2023-09-18T09:26:37;99806.09;;;11.87;100.00
28167;BME280;15455;53.376;-6.262;2023-09-18T09:29:24;99804.25;;;11.92;100.00
28167;BME280;15455;53.376;-6.262;2023-09-18T09:32:16;99794.59;;;11.95;100.00
28167;BME280;15455;53.376;-6.262;2023-09-18T09:35:02;99777.09;;;11.99;100.00
28167;BME280;15455;53.376;-6.262;2023-09-18T09:37:53;99783.91;;;12.06;100.00
28167;BME280;15455;53.376;-6.262;2023-09-18T09:40:41;99790.66;;;12.15;100.00
28167;BME280;15455;53.376;-6.262;2023-09-18T09:43:31;99783.47;;;12.23;100.00
28167;BME280;15455;53.376;-6.262;2023-09-18T09:46:18;99787.69;;;12.29;100.00
28167;BME280;15455;53.376;-6.262;2023-09-18T09:49:04;99766.66;;;12.33;100.00
28167;BME280;15455;53.376;-6.262;2023-09-18T09:51:50;99754.47;;;12.32;100.00
28167;BME280;15455;53.376;-6.262;2023-09-18T09:54:36;99763.00;;;12.39;100.00
28167;BME280;15455;53.376;-6.262;2023-09-18T09:57:24;99768.09;;;12.45;100.00
28167;BME280;15455;53.376;-6.262;2023-09-18T10:00:10;99752.31;;;12.48;100.00
28167;BME280;15455;53.376;-6.262;2023-09-18T10:03:12;99762.66;;;12.53;100.00
28167;BME280;15455;53.376;-6.262;2023-09-18T10:05:58;99770.38;;;12.58;100.00
28167;BME280;15455;53.376;-6.262;2023-09-18T10:08:44;99772.19;;;12.56;100.00
28167;BME280;15455;53.376;-6.262;2023-09-18T10:11:31;99763.38;;;12.60;100.00
28167;BME280;15455;53.376;-6.262;2023-09-18T10:14:29;99792.91;;;12.63;100.00
28167;BME280;15455;53.376;-6.262;2023-09-18T10:17:27;99779.16;;;12.57;100.00
28167;BME280;15455;53.376;-6.262;2023-09-18T10:20:16;99783.38;;;12.62;100.00
28167;BME280;15455;53.376;-6.262;2023-09-18T10:23:05;99792.69;;;12.73;100.00
28167;BME280;15455;53.376;-6.262;2023-09-18T10:25:55;99794.16;;;12.83;100.00
28167;BME280;15455;53.376;-6.262;2023-09-18T10:28:43;99786.31;;;12.83;100.00
28167;BME280;15455;53.376;-6.262;2023-09-18T10:31:29;99791.41;;;12.88;100.00
28167;BME280;15455;53.376;-6.262;2023-09-18T10:34:19;99785.25;;;12.90;100.00
28167;BME280;15455;53.376;-6.262;2023-09-18T10:37:04;99782.56;;;12.92;100.00
28167;BME280;15455;53.376;-6.262;2023-09-18T10:39:53;99790.06;;;13.04;100.00
28167;BME280;15455;53.376;-6.262;2023-09-18T10:42:41;99787.91;;;13.18;100.00
28167;BME280;15455;53.376;-6.262;2023-09-18T10:45:27;99798.00;;;13.32;100.00
28167;BME280;15455;53.376;-6.262;2023-09-18T10:48:13;99789.25;;;13.35;100.00
28167;BME280;15455;53.376;-6.262;2023-09-18T10:51:00;99783.00;;;13.39;100.00
28167;BME280;15455;53.376;-6.262;2023-09-18T10:53:51;99781.00;;;13.47;100.00
28167;BME280;15455;53.376;-6.262;2023-09-18T10:56:44;99779.91;;;13.54;100.00
28167;BME280;15455;53.376;-6.262;2023-09-18T10:59:30;99770.59;;;13.44;100.00
28167;BME280;15455;53.376;-6.262;2023-09-18T11:02:17;99782.97;;;13.41;100.00
28167;BME280;15455;53.376;-6.262;2023-09-18T11:05:03;99774.16;;;13.42;100.00
28167;BME280;15455;53.376;-6.262;2023-09-18T11:11:16;99778.28;;;13.50;100.00
28167;BME280;15455;53.376;-6.262;2023-09-18T11:14:10;99769.31;;;13.59;100.00
28167;BME280;15455;53.376;-6.262;2023-09-18T11:16:56;99769.00;;;13.68;100.00
28167;BME280;15455;53.376;-6.262;2023-09-18T11:19:42;99772.00;;;13.84;100.00
28167;BME280;15455;53.376;-6.262;2023-09-18T11:22:29;99775.56;;;13.82;100.00
28167;BME280;15455;53.376;-6.262;2023-09-18T11:28:24;99775.72;;;13.77;100.00
28167;BME280;15455;53.376;-6.262;2023-09-18T11:31:09;99765.91;;;13.84;100.00
28167;BME280;15455;53.376;-6.262;2023-09-18T11:33:56;99764.72;;;13.94;100.00
28167;BME280;15455;53.376;-6.262;2023-09-18T11:36:42;99771.22;;;14.09;100.00
28167;BME280;15455;53.376;-6.262;2023-09-18T11:39:36;99773.41;;;14.23;100.00
28167;BME280;15455;53.376;-6.262;2023-09-18T11:42:22;99761.63;;;14.35;100.00
28167;BME280;15455;53.376;-6.262;2023-09-18T11:45:16;99764.03;;;14.41;100.00
28167;BME280;15455;53.376;-6.262;2023-09-18T11:48:03;99756.25;;;14.38;100.00
28167;BME280;15455;53.376;-6.262;2023-09-18T11:50:51;99766.97;;;14.32;100.00
28167;BME280;15455;53.376;-6.262;2023-09-18T11:53:38;99768.59;;;14.36;100.00
28167;BME280;15455;53.376;-6.262;2023-09-18T11:56:27;99764.41;;;14.30;100.00
28167;BME280;15455;53.376;-6.262;2023-09-18T11:59:12;99764.75;;;14.19;100.00
28167;BME280;15455;53.376;-6.262;2023-09-18T12:01:58;99760.50;;;14.15;100.00
28167;BME280;15455;53.376;-6.262;2023-09-18T12:04:51;99763.06;;;14.18;100.00
28167;BME280;15455;53.376;-6.262;2023-09-18T12:07:37;99758.94;;;14.36;100.00
28167;BME280;15455;53.376;-6.262;2023-09-18T12:10:23;99767.31;;;14.48;100.00
28167;BME280;15455;53.376;-6.262;2023-09-18T12:13:09;99763.00;;;14.45;100.00
28167;BME280;15455;53.376;-6.262;2023-09-18T12:16:12;99766.41;;;14.49;100.00
28167;BME280;15455;53.376;-6.262;2023-09-18T12:18:58;99772.56;;;14.48;100.00
28167;BME280;15455;53.376;-6.262;2023-09-18T12:21:46;99777.16;;;14.41;100.00
28167;BME280;15455;53.376;-6.262;2023-09-18T12:24:35;99778.88;;;14.42;100.00
28167;BME280;15455;53.376;-6.262;2023-09-18T12:27:20;99771.91;;;14.41;100.00
28167;BME280;15455;53.376;-6.262;2023-09-18T12:30:06;99770.22;;;14.38;100.00
28167;BME280;15455;53.376;-6.262;2023-09-18T12:32:57;99776.34;;;14.39;100.00
28167;BME280;15455;53.376;-6.262;2023-09-18T12:35:43;99771.91;;;14.41;100.00
28167;BME280;15455;53.376;-6.262;2023-09-18T12:38:29;99785.84;;;14.43;100.00
28167;BME280;15455;53.376;-6.262;2023-09-18T12:41:16;99802.41;;;14.45;100.00
28167;BME280;15455;53.376;-6.262;2023-09-18T12:44:01;99778.16;;;14.37;100.00
28167;BME280;15455;53.376;-6.262;2023-09-18T12:46:49;99769.44;;;14.36;100.00
28167;BME280;15455;53.376;-6.262;2023-09-18T12:49:37;99762.94;;;14.21;100.00
28167;BME280;15455;53.376;-6.262;2023-09-18T12:52:25;99732.84;;;14.05;100.00
28167;BME280;15455;53.376;-6.262;2023-09-18T12:55:27;99745.69;;;13.87;100.00
28167;BME280;15455;53.376;-6.262;2023-09-18T12:58:13;99753.69;;;13.83;100.00
28167;BME280;15455;53.376;-6.262;2023-09-18T13:01:04;99767.44;;;13.91;100.00
28167;BME280;15455;53.376;-6.262;2023-09-18T13:03:54;99758.47;;;13.98;100.00
28167;BME280;15455;53.376;-6.262;2023-09-18T13:06:41;99769.03;;;14.22;100.00
28167;BME280;15455;53.376;-6.262;2023-09-18T13:09:27;99747.16;;;14.48;100.00
28167;BME280;15455;53.376;-6.262;2023-09-18T13:12:13;99769.47;;;14.62;100.00
28167;BME280;15455;53.376;-6.262;2023-09-18T13:15:00;99754.78;;;14.81;100.00
28167;BME280;15455;53.376;-6.262;2023-09-18T13:17:50;99748.00;;;14.99;100.00
28167;BME280;15455;53.376;-6.262;2023-09-18T13:20:37;99760.50;;;15.16;100.00
28167;BME280;15455;53.376;-6.262;2023-09-18T13:23:31;99751.25;;;15.29;100.00
28167;BME280;15455;53.376;-6.262;2023-09-18T13:26:18;99758.69;;;15.42;100.00
28167;BME280;15455;53.376;-6.262;2023-09-18T13:29:04;99753.09;;;15.27;100.00
28167;BME280;15455;53.376;-6.262;2023-09-18T13:31:51;99753.59;;;15.14;100.00
28167;BME280;15455;53.376;-6.262;2023-09-18T13:34:36;99748.44;;;15.10;100.00
28167;BME280;15455;53.376;-6.262;2023-09-18T13:37:24;99752.44;;;15.21;100.00
28167;BME280;15455;53.376;-6.262;2023-09-18T13:40:10;99746.69;;;15.11;100.00
28167;BME280;15455;53.376;-6.262;2023-09-18T13:42:56;99749.94;;;15.18;100.00
28167;BME280;15455;53.376;-6.262;2023-09-18T13:45:41;99753.50;;;15.17;100.00
28167;BME280;15455;53.376;-6.262;2023-09-18T13:48:27;99739.50;;;15.16;100.00
28167;BME280;15455;53.376;-6.262;2023-09-18T13:51:14;99738.69;;;15.14;100.00
28167;BME280;15455;53.376;-6.262;2023-09-18T13:53:59;99742.66;;;15.48;100.00
28167;BME280;15455;53.376;-6.262;2023-09-18T13:56:46;99740.59;;;15.78;100.00
28167;BME280;15455;53.376;-6.262;2023-09-18T13:59:33;99731.97;;;15.75;100.00
28167;BME280;15455;53.376;-6.262;2023-09-18T14:02:18;99730.25;;;15.74;100.00
28167;BME280;15455;53.376;-6.262;2023-09-18T14:05:05;99733.41;;;15.84;100.00
28167;BME280;15455;53.376;-6.262;2023-09-18T14:07:51;99738.56;;;16.07;100.00
28167;BME280;15455;53.376;-6.262;2023-09-18T14:10:36;99733.38;;;16.06;100.00
28167;BME280;15455;53.376;-6.262;2023-09-18T14:13:25;99736.75;;;15.87;100.00
28167;BME280;15455;53.376;-6.262;2023-09-18T14:16:10;99733.53;;;15.80;100.00
28167;BME280;15455;53.376;-6.262;2023-09-18T14:18:56;99732.50;;;15.85;100.00
28167;BME280;15455;53.376;-6.262;2023-09-18T14:21:41;99740.63;;;16.01;100.00
28167;BME280;15455;53.376;-6.262;2023-09-18T14:24:28;99737.88;;;15.82;100.00
28167;BME280;15455;53.376;-6.262;2023-09-18T14:27:13;99740.72;;;15.75;100.00
28167;BME280;15455;53.376;-6.262;2023-09-18T14:29:59;99725.41;;;15.41;100.00
28167;BME280;15455;53.376;-6.262;2023-09-18T14:32:46;99724.25;;;15.48;100.00